createdAt,value
2023-02-09T00:00:18.035Z,0.00
2023-02-09T00:01:18.010Z,0.00
2023-02-09T00:02:18.045Z,0.00
2023-02-09T00:03:17.974Z,0.00
2023-02-09T00:04:17.932Z,0.00
2023-02-09T00:05:17.891Z,0.00
2023-02-09T00:06:17.870Z,0.00
2023-02-09T00:07:17.837Z,0.00
2023-02-09T00:08:17.803Z,0.00
2023-02-09T00:09:17.780Z,0.00
2023-02-09T00:10:17.749Z,0.00
2023-02-09T00:11:17.725Z,0.00
2023-02-09T00:12:17.678Z,0.00
2023-02-09T00:13:17.671Z,0.00
2023-02-09T00:14:19.210Z,0.00
2023-02-09T00:15:17.631Z,0.00
2023-02-09T00:16:17.661Z,0.00
2023-02-09T00:17:17.538Z,0.00
2023-02-09T00:18:17.505Z,0.00
2023-02-09T00:19:17.482Z,0.00
2023-02-09T00:20:17.442Z,0.00
2023-02-09T00:21:17.423Z,0.00
2023-02-09T00:22:17.424Z,0.00
2023-02-09T00:23:17.361Z,0.00
2023-02-09T00:24:17.332Z,0.00
2023-02-09T00:25:17.339Z,0.00
2023-02-09T00:26:17.291Z,0.00
2023-02-09T00:27:17.268Z,0.00
2023-02-09T00:28:17.258Z,0.00
2023-02-09T00:29:17.193Z,0.00
2023-02-09T00:30:17.178Z,0.00
2023-02-09T00:31:17.352Z,0.00
2023-02-09T00:32:17.089Z,0.00
2023-02-09T00:33:17.085Z,0.00
2023-02-09T00:34:17.042Z,0.00
2023-02-09T00:35:17.015Z,0.00
2023-02-09T00:36:16.972Z,0.00
2023-02-09T00:37:16.944Z,0.00
2023-02-09T00:38:16.909Z,0.00
2023-02-09T00:39:16.891Z,0.00
2023-02-09T00:40:16.857Z,0.00
2023-02-09T00:41:16.878Z,0.00
2023-02-09T00:42:16.826Z,0.00
2023-02-09T00:43:16.770Z,0.00
2023-02-09T00:44:16.741Z,0.00
2023-02-09T00:45:16.737Z,0.00
2023-02-09T00:46:16.733Z,0.00
2023-02-09T00:47:16.654Z,0.00
2023-02-09T00:48:16.621Z,0.00
2023-02-09T00:49:16.594Z,0.00
2023-02-09T00:50:16.565Z,0.00
2023-02-09T00:51:16.522Z,0.00
2023-02-09T00:52:16.492Z,0.00
2023-02-09T00:53:16.467Z,0.00
2023-02-09T00:54:16.457Z,0.00
2023-02-09T00:55:16.417Z,0.00
2023-02-09T00:56:16.375Z,0.00
2023-02-09T00:57:16.349Z,0.00
2023-02-09T00:58:16.334Z,0.00
2023-02-09T00:59:16.295Z,0.00
2023-02-09T01:00:16.272Z,0.00
2023-02-09T01:01:16.251Z,0.00
2023-02-09T01:02:16.200Z,0.00
2023-02-09T01:03:16.187Z,0.00
2023-02-09T01:04:16.174Z,0.00
2023-02-09T01:05:16.117Z,0.00
2023-02-09T01:06:16.077Z,0.00
2023-02-09T01:07:16.052Z,0.00
2023-02-09T01:08:16.017Z,0.00
2023-02-09T01:09:15.990Z,0.00
2023-02-09T01:10:15.962Z,0.00
2023-02-09T01:11:15.927Z,0.00
2023-02-09T01:12:15.900Z,0.00
2023-02-09T01:13:15.872Z,0.00
2023-02-09T01:14:15.843Z,0.00
2023-02-09T01:15:15.816Z,0.00
2023-02-09T01:16:15.857Z,0.00
2023-02-09T01:17:15.744Z,0.00
2023-02-09T01:18:15.722Z,0.00
2023-02-09T01:19:15.683Z,0.00
2023-02-09T01:20:15.657Z,0.00
2023-02-09T01:21:15.619Z,0.00
2023-02-09T01:22:15.609Z,0.00
2023-02-09T01:23:15.567Z,0.00
2023-02-09T01:24:15.534Z,0.00
2023-02-09T01:25:15.505Z,0.00
2023-02-09T01:26:15.481Z,0.00
2023-02-09T01:27:15.449Z,0.00
2023-02-09T01:28:15.449Z,0.00
2023-02-09T01:29:15.392Z,0.00
2023-02-09T01:30:15.365Z,0.00
2023-02-09T01:31:15.450Z,0.00
2023-02-09T01:32:15.296Z,0.00
2023-02-09T01:33:15.264Z,0.00
2023-02-09T01:34:15.234Z,0.00
2023-02-09T01:35:15.233Z,0.00
2023-02-09T01:36:15.187Z,0.00
2023-02-09T01:37:15.146Z,0.00
2023-02-09T01:38:15.160Z,0.00
2023-02-09T01:39:15.118Z,0.00
2023-02-09T01:40:15.059Z,0.00
2023-02-09T01:41:15.042Z,0.00
2023-02-09T01:42:15.000Z,0.00
2023-02-09T01:43:14.978Z,0.00
2023-02-09T01:44:14.950Z,0.00
2023-02-09T01:45:14.912Z,0.00
2023-02-09T01:46:14.910Z,0.00
2023-02-09T01:47:14.854Z,0.00
2023-02-09T01:48:14.830Z,0.00
2023-02-09T01:49:14.799Z,0.00
2023-02-09T01:50:14.767Z,0.00
2023-02-09T01:51:14.743Z,0.00
2023-02-09T01:52:14.718Z,0.00
2023-02-09T01:53:14.672Z,0.00
2023-02-09T01:54:14.643Z,0.00
2023-02-09T01:55:14.613Z,0.00
2023-02-09T01:56:14.593Z,0.00
2023-02-09T01:57:14.565Z,0.00
2023-02-09T01:58:14.528Z,0.00
2023-02-09T01:59:14.505Z,0.00
2023-02-09T02:00:14.474Z,0.00
2023-02-09T02:01:14.504Z,0.00
2023-02-09T02:02:14.436Z,0.00
2023-02-09T02:03:14.370Z,0.00
2023-02-09T02:04:14.346Z,0.00
2023-02-09T02:05:14.308Z,0.00
2023-02-09T02:06:14.313Z,0.00
2023-02-09T02:07:14.259Z,0.00
2023-02-09T02:08:14.224Z,0.00
2023-02-09T02:09:14.187Z,0.00
2023-02-09T02:10:14.168Z,0.00
2023-02-09T02:11:14.175Z,0.00
2023-02-09T02:12:14.114Z,0.00
2023-02-09T02:13:14.076Z,0.00
2023-02-09T02:14:14.066Z,0.00
2023-02-09T02:15:14.004Z,0.00
2023-02-09T02:16:14.066Z,0.00
2023-02-09T02:17:13.956Z,0.00
2023-02-09T02:18:13.928Z,0.00
2023-02-09T02:19:13.882Z,0.00
2023-02-09T02:20:13.864Z,0.00
2023-02-09T02:21:13.832Z,0.00
2023-02-09T02:22:13.823Z,0.00
2023-02-09T02:23:13.767Z,0.00
2023-02-09T02:24:13.748Z,0.00
2023-02-09T02:25:13.709Z,0.00
2023-02-09T02:26:13.681Z,0.00
2023-02-09T02:27:13.649Z,0.00
2023-02-09T02:28:13.701Z,0.00
2023-02-09T02:29:13.590Z,0.00
2023-02-09T02:30:13.587Z,0.00
2023-02-09T02:31:13.655Z,0.00
2023-02-09T02:32:13.504Z,0.00
2023-02-09T02:33:13.457Z,0.00
2023-02-09T02:34:13.443Z,0.00
2023-02-09T02:35:13.420Z,0.00
2023-02-09T02:36:13.374Z,0.00
2023-02-09T02:37:13.365Z,0.00
2023-02-09T02:38:13.318Z,0.00
2023-02-09T02:39:13.277Z,0.00
2023-02-09T02:40:13.261Z,0.00
2023-02-09T02:41:13.224Z,0.00
2023-02-09T02:42:13.196Z,0.00
2023-02-09T02:43:13.154Z,0.00
2023-02-09T02:44:13.135Z,0.00
2023-02-09T02:45:13.101Z,0.00
2023-02-09T02:46:13.115Z,0.00
2023-02-09T02:47:13.040Z,0.00
2023-02-09T02:48:13.024Z,0.00
2023-02-09T02:49:15.126Z,0.00
2023-02-09T02:50:12.965Z,0.00
2023-02-09T02:51:12.929Z,0.00
2023-02-09T02:52:12.932Z,0.00
2023-02-09T02:53:12.862Z,0.00
2023-02-09T02:54:12.835Z,0.00
2023-02-09T02:55:12.805Z,0.00
2023-02-09T02:56:12.777Z,0.00
2023-02-09T02:57:12.748Z,0.00
2023-02-09T02:58:12.739Z,0.00
2023-02-09T02:59:12.711Z,0.00
2023-02-09T03:00:12.650Z,0.00
2023-02-09T03:01:12.662Z,0.00
2023-02-09T03:02:12.589Z,0.00
2023-02-09T03:03:12.557Z,0.00
2023-02-09T03:04:12.530Z,0.00
2023-02-09T03:05:12.561Z,0.00
2023-02-09T03:06:12.473Z,0.00
2023-02-09T03:07:12.441Z,0.00
2023-02-09T03:08:12.417Z,0.00
2023-02-09T03:09:12.424Z,0.00
2023-02-09T03:10:12.365Z,0.00
2023-02-09T03:11:12.329Z,0.00
2023-02-09T03:12:12.298Z,0.00
2023-02-09T03:13:12.260Z,0.00
2023-02-09T03:14:12.238Z,0.00
2023-02-09T03:19:48.411Z,0.00
2023-02-09T03:20:48.401Z,0.00
2023-02-09T03:21:48.417Z,0.00
2023-02-09T03:22:48.349Z,0.00
2023-02-09T03:23:48.307Z,0.00
2023-02-09T03:25:48.220Z,0.00
2023-02-09T03:26:48.183Z,0.00
2023-02-09T03:27:48.166Z,0.00
2023-02-09T03:28:48.125Z,0.00
2023-02-09T03:29:48.099Z,0.00
2023-02-09T03:30:48.418Z,0.00
2023-02-09T03:31:48.049Z,0.00
2023-02-09T03:32:47.996Z,0.00
2023-02-09T03:33:47.968Z,0.00
2023-02-09T03:34:47.934Z,0.00
2023-02-09T03:35:47.908Z,0.00
2023-02-09T03:36:47.878Z,0.00
2023-02-09T03:37:47.853Z,0.00
2023-02-09T03:38:47.812Z,0.00
2023-02-09T03:39:47.787Z,0.00
2023-02-09T03:40:47.889Z,0.00
2023-02-09T03:41:47.738Z,0.00
2023-02-09T03:42:47.700Z,0.00
2023-02-09T03:43:47.666Z,0.00
2023-02-09T03:44:47.642Z,0.00
2023-02-09T03:45:47.607Z,0.00
2023-02-09T03:46:47.608Z,0.00
2023-02-09T03:47:47.542Z,0.00
2023-02-09T03:48:47.513Z,0.00
2023-02-09T03:49:47.482Z,0.00
2023-02-09T03:50:47.694Z,0.00
2023-02-09T03:51:47.423Z,0.00
2023-02-09T03:52:47.417Z,0.00
2023-02-09T03:53:47.362Z,0.00
2023-02-09T03:54:47.343Z,0.00
2023-02-09T03:55:47.302Z,0.00
2023-02-09T03:56:47.274Z,0.00
2023-02-09T03:57:47.235Z,0.00
2023-02-09T03:58:47.220Z,0.00
2023-02-09T03:59:47.199Z,0.00
2023-02-09T04:00:47.400Z,0.00
2023-02-09T04:01:47.116Z,0.00
2023-02-09T04:02:47.148Z,0.00
2023-02-09T04:03:47.052Z,0.00
2023-02-09T04:04:47.022Z,0.00
2023-02-09T04:05:47.018Z,0.00
2023-02-09T04:06:46.974Z,0.00
2023-02-09T04:07:46.961Z,0.00
2023-02-09T04:08:46.908Z,0.00
2023-02-09T04:09:47.005Z,0.00
2023-02-09T04:10:47.221Z,0.00
2023-02-09T04:11:46.809Z,0.00
2023-02-09T04:12:46.790Z,0.00
2023-02-09T04:13:46.753Z,0.00
2023-02-09T04:14:46.725Z,0.00
2023-02-09T04:15:46.723Z,0.00
2023-02-09T04:16:46.672Z,0.00
2023-02-09T04:17:46.648Z,0.00
2023-02-09T04:18:46.655Z,0.00
2023-02-09T04:19:46.589Z,0.00
2023-02-09T04:22:07.626Z,0.00
2023-02-09T04:23:07.589Z,0.00
2023-02-09T04:24:07.500Z,0.00
2023-02-09T04:25:07.524Z,0.00
2023-02-09T04:26:07.451Z,0.00
2023-02-09T04:27:07.411Z,0.00
2023-02-09T04:28:07.424Z,0.00
2023-02-09T04:29:07.347Z,0.00
2023-02-09T04:30:07.338Z,0.00
2023-02-09T04:31:07.306Z,0.00
2023-02-09T04:32:07.450Z,0.00
2023-02-09T04:33:07.231Z,0.00
2023-02-09T04:34:07.201Z,0.00
2023-02-09T04:35:07.185Z,0.00
2023-02-09T04:36:07.140Z,0.00
2023-02-09T04:37:07.168Z,0.00
2023-02-09T04:38:07.095Z,0.00
2023-02-09T04:39:07.047Z,0.00
2023-02-09T04:40:07.852Z,0.00
2023-02-09T04:41:06.995Z,0.00
2023-02-09T04:42:07.031Z,0.00
2023-02-09T04:43:06.938Z,0.00
2023-02-09T04:44:06.914Z,0.00
2023-02-09T04:45:06.868Z,0.00
2023-02-09T04:46:06.918Z,0.00
2023-02-09T04:47:06.872Z,0.00
2023-02-09T04:48:06.825Z,0.00
2023-02-09T04:49:06.766Z,0.00
2023-02-09T04:50:06.733Z,0.00
2023-02-09T04:51:06.692Z,0.00
2023-02-09T04:52:06.657Z,0.00
2023-02-09T04:53:06.626Z,0.00
2023-02-09T04:54:06.673Z,0.00
2023-02-09T04:55:06.574Z,0.00
2023-02-09T04:56:06.547Z,0.00
2023-02-09T04:57:06.497Z,0.00
2023-02-09T04:58:06.467Z,0.00
2023-02-09T04:59:06.431Z,0.00
2023-02-09T05:00:06.428Z,0.00
2023-02-09T05:01:06.408Z,0.00
2023-02-09T05:02:06.358Z,0.00
2023-02-09T05:03:06.354Z,0.00
2023-02-09T05:04:06.290Z,0.00
2023-02-09T05:05:06.264Z,0.00
2023-02-09T05:06:06.274Z,0.00
2023-02-09T05:07:06.201Z,0.00
2023-02-09T05:08:06.189Z,0.00
2023-02-09T05:09:06.134Z,0.00
2023-02-09T05:10:06.117Z,0.00
2023-02-09T05:11:06.083Z,0.00
2023-02-09T05:12:06.056Z,0.00
2023-02-09T05:13:06.028Z,0.00
2023-02-09T05:14:05.983Z,0.00
2023-02-09T05:15:05.967Z,0.00
2023-02-09T05:16:06.015Z,0.00
2023-02-09T05:17:05.891Z,0.00
2023-02-09T05:18:05.866Z,0.00
2023-02-09T05:19:05.826Z,0.00
2023-02-09T05:20:05.803Z,0.00
2023-02-09T05:21:05.783Z,0.00
2023-02-09T05:22:05.737Z,0.00
2023-02-09T05:23:05.756Z,0.00
2023-02-09T05:24:05.680Z,0.00
2023-02-09T05:25:05.638Z,0.00
2023-02-09T05:26:05.628Z,0.00
2023-02-09T05:27:05.585Z,0.00
2023-02-09T05:28:05.597Z,0.00
2023-02-09T05:29:05.530Z,0.00
2023-02-09T05:30:05.501Z,0.00
2023-02-09T05:31:05.494Z,0.00
2023-02-09T05:32:05.527Z,0.00
2023-02-09T05:33:05.409Z,0.00
2023-02-09T05:34:05.384Z,0.00
2023-02-09T05:35:07.025Z,0.00
2023-02-09T05:36:05.329Z,0.00
2023-02-09T05:37:05.350Z,0.00
2023-02-09T05:38:05.310Z,0.00
2023-02-09T05:39:05.240Z,0.00
2023-02-09T05:40:05.204Z,0.00
2023-02-09T05:41:05.165Z,0.00
2023-02-09T05:42:05.141Z,0.00
2023-02-09T05:43:05.090Z,0.00
2023-02-09T05:44:05.073Z,0.00
2023-02-09T05:45:05.036Z,0.00
2023-02-09T05:46:08.092Z,0.00
2023-02-09T05:47:05.002Z,0.00
2023-02-09T05:48:04.946Z,0.00
2023-02-09T05:49:04.925Z,0.00
2023-02-09T05:50:04.892Z,0.00
2023-02-09T05:51:04.886Z,0.00
2023-02-09T05:52:04.826Z,0.00
2023-02-09T05:53:04.800Z,0.00
2023-02-09T05:54:04.770Z,0.00
2023-02-09T05:55:04.749Z,0.00
2023-02-09T05:56:04.706Z,0.00
2023-02-09T05:57:04.676Z,0.00
2023-02-09T05:58:04.641Z,0.00
2023-02-09T05:59:04.894Z,0.00
2023-02-09T06:00:04.589Z,0.00
2023-02-09T06:01:04.547Z,0.00
2023-02-09T06:02:04.561Z,0.00
2023-02-09T06:03:04.688Z,0.00
2023-02-09T06:04:04.500Z,0.00
2023-02-09T06:05:04.443Z,0.00
2023-02-09T06:06:04.394Z,0.00
2023-02-09T06:07:04.425Z,0.00
2023-02-09T06:08:04.337Z,0.00
2023-02-09T06:09:04.303Z,0.00
2023-02-09T06:10:04.267Z,0.00
2023-02-09T06:11:04.236Z,0.00
2023-02-09T06:12:04.208Z,0.00
2023-02-09T06:13:04.168Z,4.00
2023-02-09T06:14:04.150Z,0.00
2023-02-09T06:15:04.121Z,0.00
2023-02-09T06:16:04.108Z,4.00
2023-02-09T06:17:04.049Z,0.00
2023-02-09T06:18:04.025Z,4.00
2023-02-09T06:19:04.000Z,4.00
2023-02-09T06:20:03.976Z,4.00
2023-02-09T06:21:03.960Z,8.00
2023-02-09T06:22:03.908Z,8.00
2023-02-09T06:23:03.869Z,8.00
2023-02-09T06:25:03.827Z,12.00
2023-02-09T06:26:03.775Z,16.00
2023-02-09T06:27:03.756Z,20.00
2023-02-09T06:28:03.762Z,24.00
2023-02-09T06:29:03.696Z,28.00
2023-02-09T06:30:03.655Z,32.00
2023-02-09T06:31:03.694Z,36.00
2023-02-09T06:32:03.674Z,44.00
2023-02-09T06:33:03.584Z,52.00
2023-02-09T06:34:03.539Z,60.00
2023-02-09T06:35:03.517Z,68.00
2023-02-09T06:37:03.556Z,84.00
2023-02-09T06:38:03.445Z,100.00
2023-02-09T06:39:03.520Z,108.00
2023-02-09T06:40:03.433Z,124.00
2023-02-09T06:41:03.336Z,136.00
2023-02-09T06:42:03.312Z,152.00
2023-02-09T06:43:03.277Z,172.00
2023-02-09T06:44:03.240Z,188.00
2023-02-09T06:45:03.209Z,208.00
2023-02-09T06:46:03.242Z,224.00
2023-02-09T06:47:03.160Z,248.00
2023-02-09T06:48:03.172Z,268.00
2023-02-09T06:49:03.136Z,292.00
2023-02-09T06:50:03.081Z,316.00
2023-02-09T06:51:03.089Z,340.00
2023-02-09T06:52:02.995Z,364.00
2023-02-09T06:53:02.964Z,388.00
2023-02-09T06:54:02.947Z,420.00
2023-02-09T06:55:02.908Z,448.00
2023-02-09T06:56:02.881Z,472.00
2023-02-09T06:57:02.858Z,504.00
2023-02-09T06:58:02.812Z,532.00
2023-02-09T06:59:02.835Z,564.00
2023-02-09T07:00:02.781Z,592.00
2023-02-09T07:01:02.743Z,624.00
2023-02-09T07:02:02.765Z,656.00
2023-02-09T07:03:02.688Z,688.00
2023-02-09T07:04:02.646Z,720.00
2023-02-09T07:05:02.615Z,756.00
2023-02-09T07:06:02.573Z,792.00
2023-02-09T07:07:02.569Z,824.00
2023-02-09T07:08:02.520Z,856.00
2023-02-09T07:09:02.494Z,892.00
2023-02-09T07:10:02.456Z,924.00
2023-02-09T07:11:02.453Z,964.00
2023-02-09T07:12:02.405Z,1000.00
2023-02-09T07:13:02.400Z,1036.00
2023-02-09T07:14:02.338Z,1068.00
2023-02-09T07:15:02.329Z,1104.00
2023-02-09T07:16:02.308Z,1140.00
2023-02-09T07:17:02.255Z,1172.00
2023-02-09T07:18:02.216Z,1208.00
2023-02-09T07:19:02.196Z,1244.00
2023-02-09T07:20:02.173Z,1276.00
2023-02-09T07:21:02.143Z,1308.00
2023-02-09T07:22:02.108Z,1340.00
2023-02-09T07:23:02.078Z,1372.00
2023-02-09T07:24:02.056Z,1408.00
2023-02-09T07:25:02.028Z,1440.00
2023-02-09T07:26:01.987Z,1472.00
2023-02-09T07:27:01.968Z,1504.00
2023-02-09T07:28:01.957Z,1536.00
2023-02-09T07:29:01.906Z,1568.00
2023-02-09T07:30:01.877Z,1604.00
2023-02-09T07:31:02.127Z,1632.00
2023-02-09T07:32:01.874Z,1664.00
2023-02-09T07:33:01.785Z,1688.00
2023-02-09T07:34:01.762Z,1716.00
2023-02-09T07:35:01.723Z,1752.00
2023-02-09T07:36:01.688Z,1780.00
2023-02-09T07:37:01.682Z,1816.00
2023-02-09T07:38:01.635Z,1844.00
2023-02-09T07:39:01.601Z,1872.00
2023-02-09T07:40:01.579Z,1900.00
2023-02-09T07:41:01.571Z,1928.00
2023-02-09T07:42:01.514Z,1960.00
2023-02-09T07:43:01.499Z,1988.00
2023-02-09T07:44:01.455Z,2032.00
2023-02-09T07:45:01.425Z,2068.00
2023-02-09T07:46:01.400Z,2092.00
2023-02-09T07:47:01.385Z,2128.00
2023-02-09T07:48:01.338Z,2160.00
2023-02-09T07:49:01.558Z,2180.00
2023-02-09T07:50:01.270Z,2208.00
2023-02-09T07:51:01.288Z,2236.00
2023-02-09T07:52:01.234Z,2236.00
2023-02-09T07:53:01.191Z,2264.00
2023-02-09T07:54:01.180Z,2284.00
2023-02-09T07:55:01.135Z,2324.00
2023-02-09T07:56:01.093Z,2360.00
2023-02-09T07:57:01.076Z,2392.00
2023-02-09T07:58:01.050Z,2416.00
2023-02-09T07:59:01.013Z,2448.00
2023-02-09T08:00:00.977Z,2480.00
2023-02-09T08:01:00.977Z,2512.00
2023-02-09T08:02:00.972Z,2548.00
2023-02-09T08:03:00.915Z,2616.00
2023-02-09T08:04:00.860Z,2672.00
2023-02-09T08:05:00.938Z,2724.00
2023-02-09T08:06:00.803Z,2828.00
2023-02-09T08:07:00.778Z,2988.00
2023-02-09T08:08:00.744Z,3048.00
2023-02-09T08:09:00.724Z,3164.00
2023-02-09T08:10:00.688Z,3368.00
2023-02-09T08:11:00.668Z,3536.00
2023-02-09T08:12:00.739Z,3660.00
2023-02-09T08:13:00.680Z,3752.00
2023-02-09T08:14:00.585Z,3848.00
2023-02-09T08:15:00.548Z,3948.00
2023-02-09T08:16:00.569Z,4068.00
2023-02-09T08:17:00.532Z,4168.00
2023-02-09T08:18:00.453Z,4260.00
2023-02-09T08:19:00.436Z,4352.00
2023-02-09T08:20:00.407Z,4452.00
2023-02-09T08:21:00.387Z,4528.00
2023-02-09T08:22:00.375Z,4624.00
2023-02-09T08:23:00.335Z,4748.00
2023-02-09T08:24:00.290Z,4848.00
2023-02-09T08:25:00.267Z,4956.00
2023-02-09T08:26:00.248Z,5036.00
2023-02-09T08:27:00.216Z,5132.00
2023-02-09T08:28:00.268Z,5256.00
2023-02-09T08:29:00.223Z,5372.00
2023-02-09T08:30:00.146Z,5512.00
2023-02-09T08:31:00.151Z,5668.00
2023-02-09T08:32:00.201Z,5788.00
2023-02-09T08:33:00.055Z,5892.00
2023-02-09T08:34:00.082Z,6064.00
2023-02-09T08:35:00.013Z,6244.00
2023-02-09T08:35:59.966Z,6504.00
2023-02-09T08:36:59.949Z,6784.00
2023-02-09T08:37:59.908Z,7100.00
2023-02-09T08:38:59.891Z,7460.00
2023-02-09T08:39:59.863Z,7936.00
2023-02-09T08:40:59.853Z,8540.00
2023-02-09T08:41:59.804Z,9112.00
2023-02-09T08:42:59.781Z,9660.00
2023-02-09T08:43:59.751Z,10124.00
2023-02-09T08:44:59.736Z,10664.00
2023-02-09T08:45:59.786Z,11164.00
2023-02-09T08:46:59.840Z,11384.00
2023-02-09T08:47:59.654Z,11624.00
2023-02-09T08:48:59.629Z,11644.00
2023-02-09T08:49:59.605Z,11272.00
2023-02-09T08:50:59.578Z,12016.00
2023-02-09T08:51:59.552Z,13220.00
2023-02-09T08:52:59.537Z,12544.00
2023-02-09T08:53:59.496Z,11828.00
2023-02-09T08:54:59.476Z,12664.00
2023-02-09T08:55:59.481Z,13664.00
2023-02-09T08:56:59.436Z,13344.00
2023-02-09T08:57:59.397Z,12644.00
2023-02-09T08:58:59.386Z,12572.00
2023-02-09T08:59:59.347Z,13012.00
2023-02-09T09:00:59.377Z,14240.00
2023-02-09T09:01:59.290Z,14832.00
2023-02-09T09:02:59.281Z,15488.00
2023-02-09T09:03:59.278Z,15520.00
2023-02-09T09:04:59.225Z,15584.00
2023-02-09T09:05:59.193Z,15456.00
2023-02-09T09:06:59.181Z,14392.00
2023-02-09T09:07:59.156Z,15116.00
2023-02-09T09:08:59.119Z,16000.00
2023-02-09T09:09:59.129Z,15904.00
2023-02-09T09:10:59.091Z,16736.00
2023-02-09T09:11:59.049Z,16832.00
2023-02-09T09:12:59.040Z,14832.00
2023-02-09T09:13:58.991Z,12740.00
2023-02-09T09:14:58.980Z,13296.00
2023-02-09T09:15:58.934Z,14936.00
2023-02-09T09:16:58.971Z,14592.00
2023-02-09T09:17:58.887Z,13680.00
2023-02-09T09:18:58.896Z,15424.00
2023-02-09T09:19:58.841Z,16480.00
2023-02-09T09:20:58.810Z,18336.00
2023-02-09T09:21:58.785Z,16896.00
2023-02-09T09:22:58.785Z,17280.00
2023-02-09T09:23:58.725Z,14852.00
2023-02-09T09:24:58.704Z,13704.00
2023-02-09T09:25:58.685Z,13220.00
2023-02-09T09:26:58.658Z,11760.00
2023-02-09T09:27:58.669Z,11284.00
2023-02-09T09:28:58.605Z,11280.00
2023-02-09T09:29:58.592Z,12624.00
2023-02-09T09:30:58.658Z,13064.00
2023-02-09T09:31:58.570Z,14112.00
2023-02-09T09:32:58.567Z,14180.00
2023-02-09T09:33:58.874Z,13640.00
2023-02-09T09:34:58.448Z,15840.00
2023-02-09T09:35:58.419Z,17792.00
2023-02-09T09:36:58.431Z,12256.00
2023-02-09T09:37:58.402Z,8300.00
2023-02-09T09:38:58.358Z,10928.00
2023-02-09T09:39:58.321Z,14128.00
2023-02-09T09:40:58.290Z,15872.00
2023-02-09T09:41:58.271Z,15968.00
2023-02-09T09:42:58.261Z,11956.00
2023-02-09T09:43:58.215Z,9728.00
2023-02-09T09:44:58.221Z,12120.00
2023-02-09T09:45:58.193Z,12484.00
2023-02-09T09:46:58.133Z,13928.00
2023-02-09T09:47:58.134Z,16512.00
2023-02-09T09:48:58.096Z,17056.00
2023-02-09T09:49:58.058Z,12572.00
2023-02-09T09:50:58.033Z,10148.00
2023-02-09T09:51:58.010Z,15428.00
2023-02-09T09:52:57.987Z,17632.00
2023-02-09T09:53:57.964Z,16480.00
2023-02-09T09:54:57.949Z,16800.00
2023-02-09T09:55:57.918Z,14536.00
2023-02-09T09:56:57.890Z,13764.00
2023-02-09T09:57:57.890Z,14604.00
2023-02-09T09:58:57.827Z,17312.00
2023-02-09T09:59:57.837Z,16480.00
2023-02-09T10:00:57.833Z,16832.00
2023-02-09T10:01:57.774Z,20960.00
2023-02-09T10:02:57.740Z,24992.00
2023-02-09T10:03:57.734Z,26240.00
2023-02-09T10:04:57.733Z,27488.00
2023-02-09T10:05:57.648Z,26944.00
2023-02-09T10:06:57.620Z,27168.00
2023-02-09T10:07:57.600Z,27360.00
2023-02-09T10:08:57.569Z,29472.00
2023-02-09T10:09:57.532Z,30912.00
2023-02-09T10:10:57.569Z,31616.00
2023-02-09T10:11:57.487Z,31616.00
2023-02-09T10:12:57.467Z,31648.00
2023-02-09T10:13:57.437Z,31904.00
2023-02-09T10:14:57.415Z,32480.00
2023-02-09T10:15:57.382Z,32928.00
2023-02-09T10:16:57.440Z,33248.00
2023-02-09T10:17:57.399Z,33344.00
2023-02-09T10:18:57.319Z,33696.00
2023-02-09T10:19:57.345Z,34048.00
2023-02-09T10:20:57.302Z,34208.00
2023-02-09T10:21:57.246Z,34688.00
2023-02-09T10:22:57.217Z,34624.00
2023-02-09T10:23:57.188Z,34784.00
2023-02-09T10:24:57.175Z,35008.00
2023-02-09T10:25:57.134Z,35232.00
2023-02-09T10:26:57.115Z,35008.00
2023-02-09T10:27:57.107Z,34944.00
2023-02-09T10:28:57.062Z,35744.00
2023-02-09T10:29:57.057Z,36544.00
2023-02-09T10:30:57.111Z,36576.00
2023-02-09T10:31:57.081Z,36512.00
2023-02-09T10:32:56.967Z,36704.00
2023-02-09T10:33:56.937Z,36640.00
2023-02-09T10:34:56.943Z,36672.00
2023-02-09T10:35:56.886Z,37184.00
2023-02-09T10:36:56.865Z,37376.00
2023-02-09T10:37:56.842Z,37184.00
2023-02-09T10:38:56.807Z,37280.00
2023-02-09T10:39:56.798Z,37376.00
2023-02-09T10:40:56.763Z,37312.00
2023-02-09T10:41:56.744Z,36672.00
2023-02-09T10:42:56.740Z,36192.00
2023-02-09T10:43:56.700Z,36160.00
2023-02-09T10:44:56.678Z,36288.00
2023-02-09T10:45:56.674Z,36288.00
2023-02-09T10:46:56.609Z,35872.00
2023-02-09T10:47:56.593Z,35872.00
2023-02-09T10:48:56.578Z,35712.00
2023-02-09T10:49:56.543Z,35488.00
2023-02-09T10:50:56.529Z,35904.00
2023-02-09T10:51:56.560Z,36192.00
2023-02-09T10:52:56.507Z,35872.00
2023-02-09T10:53:56.452Z,35808.00
2023-02-09T10:54:56.424Z,35424.00
2023-02-09T10:55:56.400Z,34816.00
2023-02-09T10:56:56.407Z,33920.00
2023-02-09T10:57:56.380Z,33856.00
2023-02-09T10:58:56.339Z,33408.00
2023-02-09T10:59:56.319Z,33056.00
2023-02-09T11:00:56.289Z,32800.00
2023-02-09T11:01:56.269Z,32352.00
2023-02-09T11:02:56.235Z,31200.00
2023-02-09T11:03:56.333Z,30400.00
2023-02-09T11:04:56.244Z,29856.00
2023-02-09T11:05:56.179Z,29056.00
2023-02-09T11:06:56.160Z,28256.00
2023-02-09T11:07:56.217Z,27648.00
2023-02-09T11:08:56.132Z,27232.00
2023-02-09T11:09:56.096Z,27040.00
2023-02-09T11:10:56.058Z,26496.00
2023-02-09T11:11:56.048Z,25856.00
2023-02-09T11:12:56.010Z,25184.00
2023-02-09T11:13:55.995Z,24544.00
2023-02-09T11:14:55.975Z,23808.00
2023-02-09T11:15:56.005Z,23296.00
2023-02-09T11:16:55.926Z,22816.00
2023-02-09T11:17:55.919Z,22336.00
2023-02-09T11:18:55.888Z,21888.00
2023-02-09T11:19:55.880Z,21600.00
2023-02-09T11:20:55.837Z,21184.00
2023-02-09T11:21:55.818Z,20736.00
2023-02-09T11:22:55.785Z,20480.00
2023-02-09T11:23:55.770Z,20160.00
2023-02-09T11:24:55.739Z,19840.00
2023-02-09T11:25:55.736Z,19648.00
2023-02-09T11:26:55.704Z,19520.00
2023-02-09T11:27:55.698Z,19264.00
2023-02-09T11:28:55.668Z,19104.00
2023-02-09T11:29:55.643Z,18880.00
2023-02-09T11:30:55.860Z,18560.00
2023-02-09T11:31:55.686Z,18336.00
2023-02-09T11:32:55.593Z,18176.00
2023-02-09T11:33:55.574Z,18144.00
2023-02-09T11:34:55.515Z,17952.00
2023-02-09T11:35:55.523Z,17760.00
2023-02-09T11:36:55.476Z,17632.00
2023-02-09T11:37:55.459Z,17600.00
2023-02-09T11:38:55.433Z,17344.00
2023-02-09T11:40:55.443Z,17056.00
2023-02-09T11:41:55.497Z,17120.00
2023-02-09T11:42:55.585Z,17120.00
2023-02-09T11:43:55.481Z,17024.00
2023-02-09T11:45:55.294Z,17056.00
2023-02-09T11:46:55.259Z,16864.00
2023-02-09T11:47:55.268Z,16768.00
2023-02-09T11:48:55.205Z,16704.00
2023-02-09T11:49:55.192Z,16704.00
2023-02-09T11:50:55.167Z,16768.00
2023-02-09T11:51:55.152Z,16928.00
2023-02-09T11:52:55.146Z,17280.00
2023-02-09T11:53:55.112Z,17696.00
2023-02-09T11:54:55.088Z,18176.00
2023-02-09T11:55:55.056Z,18432.00
2023-02-09T11:56:55.031Z,18080.00
2023-02-09T11:57:55.030Z,17472.00
2023-02-09T11:58:55.003Z,16832.00
2023-02-09T11:59:54.983Z,16312.00
2023-02-09T12:01:04.053Z,16128.00
2023-02-09T12:01:54.925Z,16076.00
2023-02-09T12:02:55.125Z,15900.00
2023-02-09T12:03:54.896Z,15796.00
2023-02-09T12:04:54.860Z,15628.00
2023-02-09T12:05:54.835Z,15552.00
2023-02-09T12:06:54.936Z,15484.00
2023-02-09T12:07:54.790Z,15392.00
2023-02-09T12:08:54.769Z,15224.00
2023-02-09T12:09:54.749Z,15144.00
2023-02-09T12:10:54.724Z,15120.00
2023-02-09T12:11:54.713Z,15116.00
2023-02-09T12:12:54.690Z,15000.00
2023-02-09T12:13:54.673Z,14836.00
2023-02-09T12:14:54.832Z,14892.00
2023-02-09T12:15:55.104Z,14908.00
2023-02-09T12:17:55.166Z,14896.00
2023-02-09T12:21:27.766Z,14704.00
2023-02-09T12:22:27.944Z,14616.00
2023-02-09T12:23:27.692Z,14548.00
2023-02-09T12:24:27.648Z,14576.00
2023-02-09T12:25:27.787Z,14440.00
2023-02-09T12:27:36.840Z,14096.00
2023-02-09T12:28:27.574Z,14080.00
2023-02-09T12:29:27.458Z,14144.00
2023-02-09T12:30:27.301Z,14112.00
2023-02-09T12:31:27.523Z,14064.00
2023-02-09T12:32:27.313Z,13884.00
2023-02-09T12:33:27.231Z,13956.00
2023-02-09T12:34:27.209Z,13988.00
2023-02-09T12:35:27.179Z,13768.00
2023-02-09T12:36:27.164Z,13816.00
2023-02-09T12:37:27.655Z,13748.00
2023-02-09T12:38:27.112Z,13684.00
2023-02-09T12:39:27.089Z,13536.00
2023-02-09T12:40:27.075Z,13428.00
2023-02-09T12:41:27.116Z,13392.00
2023-02-09T12:42:27.037Z,13284.00
2023-02-09T12:43:27.021Z,13168.00
2023-02-09T12:44:26.986Z,13084.00
2023-02-09T12:45:27.029Z,12940.00
2023-02-09T12:46:27.110Z,12944.00
2023-02-09T12:47:26.947Z,12804.00
2023-02-09T12:48:26.907Z,12548.00
2023-02-09T12:49:26.891Z,12356.00